Time;durP1;ratioP1;P1;durP2;ratioP2;P2;SDS_P1;SDS_P2;PMS_P1;PMS_P2;Temp;Humidity;BMP_temperature;BMP_pressure;BME280_temperature;BME280_humidity;BME280_pressure;Samples;Min_cycle;Max_cycle;Signal;HPM_P1;HPM_P2
2022/10/18 00:01:56;;;;;;;1.25;1.02;;;20.10;60.90;;;;;;4966480;29;20019;-67
2022/10/18 00:04:22;;;;;;;1.20;1.10;;;20.10;61.00;;;;;;4966439;29;20311;-67
2022/10/18 00:06:48;;;;;;;1.10;1.05;;;20.10;60.90;;;;;;4966403;29;20015;-68
2022/10/18 00:09:13;;;;;;;1.20;1.10;;;20.10;60.90;;;;;;4966357;29;20251;-67
2022/10/18 00:11:39;;;;;;;1.38;1.27;;;20.10;60.90;;;;;;4966306;29;20027;-68
2022/10/18 00:14:05;;;;;;;1.58;1.48;;;20.10;60.90;;;;;;4966273;29;20019;-68
2022/10/18 00:16:31;;;;;;;1.25;1.15;;;20.10;60.90;;;;;;4966254;29;20027;-68
2022/10/18 00:18:57;;;;;;;1.65;1.42;;;20.10;60.90;;;;;;4966134;28;20027;-68
2022/10/18 00:21:24;;;;;;;1.45;1.30;;;20.10;61.00;;;;;;4966186;28;20085;-68
2022/10/18 00:23:51;;;;;;;1.63;1.52;;;20.10;61.00;;;;;;4966102;29;20039;-68
2022/10/18 00:26:20;;;;;;;1.13;1.05;;;20.10;60.90;;;;;;4966033;29;20074;-68
2022/10/18 00:28:50;;;;;;;1.30;1.08;;;20.10;60.90;;;;;;4965988;28;20073;-67
2022/10/18 00:31:25;;;;;;;1.38;1.27;;;20.10;61.00;;;;;;4965996;29;20314;-66
2022/10/18 00:33:54;;;;;;;1.30;1.20;;;20.10;61.00;;;;;;4965946;28;20366;-67
2022/10/18 00:36:20;;;;;;;1.15;1.08;;;20.10;60.90;;;;;;4964530;29;20047;-67
2022/10/18 00:38:47;;;;;;;1.50;1.27;;;20.10;60.90;;;;;;4965743;29;20024;-67
2022/10/18 00:41:17;;;;;;;1.30;1.20;;;20.10;61.00;;;;;;4964645;29;20019;-67
2022/10/18 00:44:09;;;;;;;1.17;1.08;;;20.10;61.00;;;;;;4965818;29;20082;-68
2022/10/18 00:46:44;;;;;;;1.20;1.10;;;20.10;60.90;;;;;;4972246;28;20036;-67
2022/10/18 00:49:23;;;;;;;1.45;1.35;;;20.10;60.90;;;;;;4965759;29;20051;-68
2022/10/18 00:51:56;;;;;;;1.23;1.13;;;20.10;61.00;;;;;;4965717;28;20140;-68
2022/10/18 00:54:23;;;;;;;1.25;1.15;;;20.10;60.90;;;;;;4965681;29;20027;-67
2022/10/18 00:56:49;;;;;;;1.27;1.17;;;20.10;60.90;;;;;;4965572;29;20019;-67
2022/10/18 00:59:16;;;;;;;1.30;1.20;;;20.00;60.90;;;;;;4965260;28;20289;-67
2022/10/18 01:01:43;;;;;;;0.95;0.95;;;20.00;60.90;;;;;;4965273;29;20326;-68
2022/10/18 01:04:08;;;;;;;1.55;1.45;;;20.00;60.90;;;;;;4965468;29;20184;-67
2022/10/18 01:06:59;;;;;;;1.55;1.40;;;20.00;60.90;;;;;;4965463;29;20054;-67
2022/10/18 01:09:51;;;;;;;1.40;1.30;;;20.00;60.90;;;;;;4965516;28;20039;-68
2022/10/18 01:12:41;;;;;;;1.20;1.10;;;20.00;60.90;;;;;;4965980;28;20035;-68
2022/10/18 01:15:15;;;;;;;1.38;1.27;;;20.00;60.90;;;;;;4965388;29;20022;-68
2022/10/18 01:17:43;;;;;;;1.30;1.20;;;20.00;60.90;;;;;;4965291;29;20094;-67
2022/10/18 01:20:33;;;;;;;2.47;1.63;;;20.00;60.90;;;;;;4965343;29;20191;-68
2022/10/18 01:23:35;;;;;;;1.23;1.13;;;20.00;60.90;;;;;;4965281;29;20251;-67
2022/10/18 01:26:26;;;;;;;1.40;1.30;;;20.00;60.90;;;;;;4965062;28;20046;-68
2022/10/18 01:29:14;;;;;;;1.20;1.10;;;20.00;61.00;;;;;;4972863;28;20274;-67
2022/10/18 01:31:57;;;;;;;1.25;0.98;;;20.00;61.00;;;;;;4965219;29;20453;-68
2022/10/18 01:34:26;;;;;;;1.73;1.33;;;20.00;61.00;;;;;;4965243;29;20315;-68
2022/10/18 01:36:54;;;;;;;1.40;1.20;;;20.00;61.00;;;;;;4965046;28;20062;-67
2022/10/18 01:39:32;;;;;;;1.13;1.02;;;20.00;61.00;;;;;;4965033;29;20031;-67
2022/10/18 01:42:01;;;;;;;1.23;1.13;;;20.00;61.00;;;;;;4965150;29;20034;-67
2022/10/18 01:44:30;;;;;;;1.35;1.25;;;20.00;61.00;;;;;;4965067;29;20061;-67
2022/10/18 01:46:57;;;;;;;1.88;1.27;;;20.00;61.00;;;;;;4965044;29;20027;-67
2022/10/18 01:49:24;;;;;;;1.20;1.10;;;20.00;61.00;;;;;;4965031;28;20048;-68
2022/10/18 01:51:50;;;;;;;3.45;1.70;;;20.00;61.00;;;;;;4965020;29;20075;-67
2022/10/18 01:54:21;;;;;;;1.40;1.02;;;20.00;61.00;;;;;;4964988;29;20046;-67
2022/10/18 01:57:02;;;;;;;1.42;1.33;;;20.00;60.90;;;;;;4964978;29;20029;-68
2022/10/18 01:59:40;;;;;;;1.35;1.25;;;20.00;61.00;;;;;;4964878;29;20088;-67
2022/10/18 02:02:11;;;;;;;1.38;1.17;;;20.00;61.00;;;;;;4964909;29;20034;-67
2022/10/18 02:04:56;;;;;;;1.58;1.23;;;20.00;60.90;;;;;;4964957;29;20027;-68
2022/10/18 02:07:40;;;;;;;1.60;1.05;;;19.90;60.90;;;;;;4964906;28;20023;-67
2022/10/18 02:10:29;;;;;;;1.50;1.40;;;19.90;60.90;;;;;;4964863;29;20019;-67
2022/10/18 02:12:56;;;;;;;1.00;0.95;;;20.00;61.00;;;;;;4966935;28;20020;-68
2022/10/18 02:15:33;;;;;;;1.40;1.30;;;20.00;61.00;;;;;;4968496;28;20019;-67
2022/10/18 02:18:02;;;;;;;1.10;1.00;;;19.90;61.00;;;;;;4968368;29;20027;-67
2022/10/18 02:20:31;;;;;;;1.27;1.17;;;20.00;61.00;;;;;;4968383;29;20215;-67
2022/10/18 02:22:59;;;;;;;1.30;1.20;;;19.90;61.00;;;;;;4968289;29;20307;-67
2022/10/18 02:25:29;;;;;;;1.40;1.30;;;19.90;60.90;;;;;;4968294;28;20307;-67
2022/10/18 02:27:55;;;;;;;1.38;1.27;;;19.90;60.90;;;;;;4968237;29;20030;-67
2022/10/18 02:30:27;;;;;;;1.58;1.38;;;19.90;61.00;;;;;;4968215;28;20363;-68
2022/10/18 02:33:03;;;;;;;1.10;1.00;;;19.90;61.00;;;;;;4968176;29;20034;-67
2022/10/18 02:35:36;;;;;;;1.40;1.30;;;19.90;61.00;;;;;;4967962;29;20039;-68
2022/10/18 02:38:04;;;;;;;1.33;1.23;;;19.90;61.00;;;;;;4966906;29;20147;-67
2022/10/18 02:40:30;;;;;;;1.23;1.13;;;19.90;61.00;;;;;;4968020;29;20326;-67
2022/10/18 02:42:58;;;;;;;1.05;0.95;;;19.90;61.00;;;;;;4967946;29;20031;-66
2022/10/18 02:45:24;;;;;;;1.20;1.10;;;19.90;61.10;;;;;;4967988;28;20027;-67
2022/10/18 02:47:50;;;;;;;1.48;1.38;;;19.90;61.00;;;;;;4967894;29;20362;-67
2022/10/18 02:50:16;;;;;;;1.23;1.10;;;19.90;61.00;;;;;;4967822;29;20023;-67
2022/10/18 02:52:42;;;;;;;1.33;1.23;;;19.90;61.00;;;;;;4967771;29;20066;-68
2022/10/18 02:55:08;;;;;;;1.35;1.25;;;19.90;61.00;;;;;;4967774;29;20086;-66
2022/10/18 02:57:34;;;;;;;1.15;1.05;;;19.90;61.00;;;;;;4967656;29;20034;-68
2022/10/18 03:00:00;;;;;;;1.48;1.38;;;19.90;61.00;;;;;;4967864;29;20090;-67
2022/10/18 03:02:26;;;;;;;1.75;1.60;;;19.90;61.00;;;;;;4967608;29;20023;-67
2022/10/18 03:04:52;;;;;;;1.20;1.10;;;19.90;61.00;;;;;;4967576;29;20083;-67
2022/10/18 03:07:18;;;;;;;1.50;1.40;;;19.90;61.00;;;;;;4967555;29;20074;-67
2022/10/18 03:09:43;;;;;;;1.33;1.23;;;19.80;61.00;;;;;;4967511;29;20333;-68
2022/10/18 03:12:09;;;;;;;1.65;1.55;;;19.90;61.00;;;;;;4967480;29;20034;-67
2022/10/18 03:14:35;;;;;;;1.30;1.20;;;19.80;60.90;;;;;;4967430;28;20082;-68
2022/10/18 03:17:00;;;;;;;1.30;1.15;;;19.80;61.00;;;;;;4967383;29;20214;-67
2022/10/18 03:19:26;;;;;;;1.50;1.25;;;19.80;61.00;;;;;;4967248;29;20026;-68
2022/10/18 03:21:52;;;;;;;0.93;0.93;;;19.80;61.00;;;;;;4967287;29;20027;-67
2022/10/18 03:24:17;;;;;;;1.30;1.20;;;19.80;61.00;;;;;;4966747;28;20015;-68
2022/10/18 03:26:43;;;;;;;1.13;1.05;;;19.80;61.00;;;;;;4967219;29;20023;-68
2022/10/18 03:29:09;;;;;;;2.05;1.50;;;19.80;61.00;;;;;;4967173;29;20027;-67
2022/10/18 03:31:35;;;;;;;1.10;1.00;;;19.80;61.00;;;;;;4967131;28;20031;-68
2022/10/18 03:34:01;;;;;;;1.40;1.30;;;19.80;61.00;;;;;;4967053;29;20112;-68
2022/10/18 03:36:27;;;;;;;1.50;1.10;;;19.80;61.00;;;;;;4966876;29;20124;-67
2022/10/18 03:38:53;;;;;;;1.38;1.20;;;19.90;61.10;;;;;;4966919;29;20302;-67
2022/10/18 03:41:19;;;;;;;1.20;1.10;;;19.80;61.00;;;;;;4966889;29;20078;-67
2022/10/18 03:43:45;;;;;;;1.55;1.30;;;19.80;61.00;;;;;;4966918;29;20244;-68
2022/10/18 03:46:12;;;;;;;1.20;1.10;;;19.80;61.10;;;;;;4966839;29;20019;-68
2022/10/18 03:48:37;;;;;;;1.40;1.30;;;19.80;61.00;;;;;;4966775;29;20022;-67
2022/10/18 03:51:03;;;;;;;1.30;1.20;;;19.80;61.00;;;;;;4966790;28;20247;-68
2022/10/18 03:53:29;;;;;;;1.60;1.42;;;19.80;61.00;;;;;;4966688;29;20035;-68
2022/10/18 03:55:55;;;;;;;1.60;1.17;;;19.80;61.00;;;;;;4966658;29;20046;-68
2022/10/18 03:58:22;;;;;;;1.33;1.23;;;19.80;61.00;;;;;;4966555;29;20035;-68
2022/10/18 04:00:54;;;;;;;1.40;1.30;;;19.80;61.00;;;;;;4966516;29;20207;-68
2022/10/18 04:03:21;;;;;;;1.50;1.40;;;19.80;61.10;;;;;;4966550;28;20047;-68
2022/10/18 04:05:48;;;;;;;1.45;1.35;;;19.80;61.00;;;;;;4966445;29;20015;-68
2022/10/18 04:08:15;;;;;;;1.30;1.20;;;19.80;61.00;;;;;;4966691;29;20027;-68
2022/10/18 04:10:41;;;;;;;1.77;1.40;;;19.80;61.10;;;;;;4966350;29;20023;-68
2022/10/18 04:13:08;;;;;;;1.77;1.52;;;19.80;61.00;;;;;;4966336;29;20061;-68
2022/10/18 04:15:34;;;;;;;1.45;1.33;;;19.80;61.00;;;;;;4966284;29;20062;-67
2022/10/18 04:18:00;;;;;;;2.25;1.33;;;19.80;61.00;;;;;;4966157;29;20019;-67
2022/10/18 04:20:26;;;;;;;1.55;1.33;;;19.80;61.10;;;;;;4966168;29;20115;-68
2022/10/18 04:22:54;;;;;;;1.25;1.15;;;19.70;61.00;;;;;;4966154;29;20045;-67
2022/10/18 04:25:20;;;;;;;1.48;1.17;;;19.80;61.10;;;;;;4966110;28;20015;-68
2022/10/18 04:27:46;;;;;;;1.20;1.10;;;19.70;61.00;;;;;;4966065;29;20019;-68
2022/10/18 04:30:12;;;;;;;1.50;1.40;;;19.70;61.00;;;;;;4966055;29;20015;-68
2022/10/18 04:32:38;;;;;;;1.40;1.30;;;19.70;61.10;;;;;;4965980;29;20235;-67
2022/10/18 04:35:05;;;;;;;1.58;1.40;;;19.80;61.10;;;;;;4965216;28;20188;-67
2022/10/18 04:37:31;;;;;;;1.30;1.20;;;19.70;61.10;;;;;;4965971;28;20259;-68
2022/10/18 04:39:57;;;;;;;1.52;1.42;;;19.70;61.00;;;;;;4965814;29;20219;-67
2022/10/18 04:42:23;;;;;;;1.50;1.40;;;19.70;61.10;;;;;;4965848;29;20018;-68
2022/10/18 04:44:49;;;;;;;1.38;1.27;;;19.70;61.00;;;;;;4965808;29;20119;-68
2022/10/18 04:47:15;;;;;;;1.98;1.58;;;19.70;61.00;;;;;;4965805;28;20019;-68
2022/10/18 04:49:41;;;;;;;2.08;1.23;;;19.70;61.00;;;;;;4965724;29;20027;-67
2022/10/18 04:52:08;;;;;;;1.50;1.40;;;19.70;61.00;;;;;;4965687;29;20387;-67
2022/10/18 04:54:33;;;;;;;1.50;1.40;;;19.70;61.00;;;;;;4965922;28;20027;-67
2022/10/18 04:56:59;;;;;;;1.42;1.23;;;19.80;61.10;;;;;;4965643;28;20074;-68
2022/10/18 04:59:25;;;;;;;1.50;1.40;;;19.70;61.10;;;;;;4965520;29;20027;-67
2022/10/18 05:01:51;;;;;;;1.42;1.33;;;19.70;61.10;;;;;;4965535;29;20023;-68
2022/10/18 05:04:16;;;;;;;1.42;1.08;;;19.70;61.00;;;;;;4965558;28;20070;-67
2022/10/18 05:06:42;;;;;;;1.75;1.40;;;19.70;61.10;;;;;;4965497;29;20058;-66
2022/10/18 05:09:08;;;;;;;1.30;1.20;;;19.70;61.00;;;;;;4965450;29;20086;-67
2022/10/18 05:11:34;;;;;;;1.52;1.42;;;19.70;61.10;;;;;;4965452;28;20039;-67
2022/10/18 05:13:59;;;;;;;1.67;1.38;;;19.70;61.00;;;;;;4965387;29;20026;-68
2022/10/18 05:16:27;;;;;;;1.38;1.10;;;19.70;61.00;;;;;;4965410;29;20037;-67
2022/10/18 05:18:53;;;;;;;1.63;1.52;;;19.70;60.90;;;;;;4965297;29;20015;-67
2022/10/18 05:21:18;;;;;;;1.58;1.48;;;19.70;61.00;;;;;;4965336;28;20071;-67
2022/10/18 05:23:44;;;;;;;1.50;1.40;;;19.70;61.00;;;;;;4965301;29;20030;-67
2022/10/18 05:26:10;;;;;;;1.50;1.40;;;19.70;61.20;;;;;;4965247;29;20030;-68
2022/10/18 05:28:36;;;;;;;1.80;1.52;;;19.70;61.00;;;;;;4965258;29;20210;-67
2022/10/18 05:31:07;;;;;;;1.45;1.30;;;19.70;61.00;;;;;;4965216;29;20362;-68
2022/10/18 05:33:33;;;;;;;1.30;1.20;;;19.70;61.00;;;;;;4965230;29;20034;-68
2022/10/18 05:35:59;;;;;;;1.73;1.45;;;19.70;61.00;;;;;;4965035;29;20058;-68
2022/10/18 05:38:25;;;;;;;2.28;1.58;;;19.70;60.90;;;;;;4965087;29;20086;-67
2022/10/18 05:40:51;;;;;;;1.25;1.15;;;19.70;61.00;;;;;;4965145;29;20019;-67
2022/10/18 05:43:17;;;;;;;1.42;1.33;;;19.70;60.90;;;;;;4965138;29;20034;-67
2022/10/18 05:45:50;;;;;;;1.27;1.17;;;19.70;60.90;;;;;;4965346;28;20026;-68
2022/10/18 05:48:15;;;;;;;1.52;1.42;;;19.70;60.90;;;;;;4969031;29;20184;-68
2022/10/18 05:50:41;;;;;;;1.80;1.50;;;19.70;61.00;;;;;;4983953;28;20027;-68
2022/10/18 05:53:07;;;;;;;1.50;1.40;;;19.70;61.00;;;;;;4968938;29;20027;-67
2022/10/18 05:55:33;;;;;;;1.38;1.27;;;19.70;61.00;;;;;;4968879;29;20027;-68
2022/10/18 05:57:58;;;;;;;1.70;1.60;;;19.60;61.00;;;;;;4968721;29;20047;-67
2022/10/18 06:00:24;;;;;;;2.80;1.35;;;19.70;61.00;;;;;;4968755;29;20019;-67
2022/10/18 06:02:50;;;;;;;1.60;1.50;;;19.70;61.00;;;;;;4968717;29;20337;-67
2022/10/18 06:05:16;;;;;;;1.67;1.55;;;19.70;61.00;;;;;;4968671;29;20018;-67
2022/10/18 06:07:41;;;;;;;1.42;1.30;;;19.70;61.00;;;;;;4968635;29;20030;-68
2022/10/18 06:10:07;;;;;;;1.63;1.40;;;19.70;60.90;;;;;;4968590;29;20023;-68
2022/10/18 06:12:33;;;;;;;1.50;1.40;;;19.70;61.00;;;;;;4968592;29;20086;-68
2022/10/18 06:14:59;;;;;;;1.70;1.58;;;19.70;61.00;;;;;;4968515;29;20214;-68
2022/10/18 06:17:24;;;;;;;1.83;1.27;;;19.70;60.90;;;;;;4968486;29;20090;-67
2022/10/18 06:19:50;;;;;;;1.40;1.30;;;19.70;60.90;;;;;;4968339;29;20027;-68
2022/10/18 06:22:16;;;;;;;1.35;1.20;;;19.70;60.90;;;;;;4968417;29;20374;-66
2022/10/18 06:24:42;;;;;;;1.38;1.27;;;19.70;61.00;;;;;;4968412;28;20012;-67
2022/10/18 06:27:08;;;;;;;1.70;1.40;;;19.60;60.90;;;;;;4968323;29;20078;-67
2022/10/18 06:29:38;;;;;;;1.33;1.23;;;19.70;60.90;;;;;;4968279;28;20019;-68
2022/10/18 06:32:05;;;;;;;1.58;1.35;;;19.70;60.90;;;;;;4968242;28;20023;-67
2022/10/18 06:34:31;;;;;;;1.45;1.35;;;19.70;60.90;;;;;;4968171;29;20030;-67
2022/10/18 06:36:57;;;;;;;2.40;1.88;;;19.70;60.90;;;;;;4968017;29;20070;-67
2022/10/18 06:39:23;;;;;;;1.58;1.48;;;19.70;60.90;;;;;;4968021;29;20074;-68
2022/10/18 06:41:49;;;;;;;1.33;1.23;;;19.70;60.80;;;;;;4968035;29;20020;-68
2022/10/18 06:44:16;;;;;;;1.80;1.60;;;19.70;60.80;;;;;;4968035;28;20030;-67
2022/10/18 06:46:43;;;;;;;1.40;1.30;;;19.70;60.80;;;;;;4967950;29;20219;-67
2022/10/18 06:49:09;;;;;;;2.10;1.60;;;19.70;60.80;;;;;;4967933;29;20255;-68
2022/10/18 06:51:35;;;;;;;1.40;1.13;;;19.70;60.80;;;;;;4967903;28;20023;-68
2022/10/18 06:54:02;;;;;;;1.75;1.55;;;19.70;60.80;;;;;;4967822;29;20027;-68
2022/10/18 06:56:28;;;;;;;1.55;1.45;;;19.70;60.80;;;;;;4967797;29;20039;-67
2022/10/18 06:58:53;;;;;;;1.80;1.30;;;19.70;60.70;;;;;;4966795;28;20342;-68
2022/10/18 07:01:19;;;;;;;1.25;1.15;;;19.70;60.80;;;;;;4967714;29;20024;-68
2022/10/18 07:03:47;;;;;;;1.40;1.27;;;19.70;60.70;;;;;;4967654;29;20050;-67
2022/10/18 07:06:16;;;;;;;1.52;1.42;;;19.70;60.70;;;;;;4967632;28;20070;-68
2022/10/18 07:08:42;;;;;;;1.30;1.20;;;19.70;60.70;;;;;;4967603;29;20090;-67
2022/10/18 07:11:14;;;;;;;1.77;1.35;;;19.70;60.60;;;;;;4967490;29;20027;-67
2022/10/18 07:13:40;;;;;;;1.65;1.52;;;19.70;60.60;;;;;;4966358;29;20023;-66
2022/10/18 07:16:11;;;;;;;2.13;1.48;;;19.80;60.70;;;;;;4967425;29;20019;-68
2022/10/18 07:18:39;;;;;;;1.60;1.50;;;19.80;60.60;;;;;;4967292;29;20307;-68
2022/10/18 07:21:08;;;;;;;1.87;1.47;;;19.80;60.60;;;;;;4967392;29;20081;-67
2022/10/18 07:23:36;;;;;;;1.38;1.27;;;19.80;60.50;;;;;;4967284;29;20049;-67
2022/10/18 07:26:09;;;;;;;1.48;1.38;;;19.80;60.40;;;;;;4967267;29;20034;-67
2022/10/18 07:28:35;;;;;;;1.60;1.50;;;19.80;60.30;;;;;;4967259;29;20211;-68
2022/10/18 07:31:04;;;;;;;1.60;1.50;;;19.90;60.30;;;;;;4967159;29;20024;-68
2022/10/18 07:33:30;;;;;;;1.38;1.27;;;19.90;60.30;;;;;;4967082;29;20027;-67
2022/10/18 07:36:01;;;;;;;1.50;1.40;;;19.90;60.20;;;;;;4966897;28;20059;-67
2022/10/18 07:38:27;;;;;;;1.77;1.48;;;19.90;60.20;;;;;;4981974;28;20027;-68
2022/10/18 07:40:57;;;;;;;1.45;1.35;;;19.90;60.20;;;;;;4966976;29;20038;-69
2022/10/18 07:43:23;;;;;;;1.45;1.35;;;19.90;60.20;;;;;;4966910;29;20019;-68
2022/10/18 07:45:54;;;;;;;1.65;1.55;;;19.90;60.10;;;;;;4966866;29;20211;-68
2022/10/18 07:48:19;;;;;;;1.50;1.40;;;20.00;60.20;;;;;;4966831;28;20430;-68
2022/10/18 07:50:45;;;;;;;1.70;1.30;;;19.90;60.10;;;;;;4966786;29;20053;-68
2022/10/18 07:53:11;;;;;;;1.88;1.70;;;20.00;60.10;;;;;;4966753;29;20059;-68
2022/10/18 07:55:37;;;;;;;1.70;1.52;;;20.00;60.10;;;;;;4966674;29;20019;-68
2022/10/18 07:58:02;;;;;;;1.35;1.23;;;20.00;60.10;;;;;;4966561;29;20038;-68
2022/10/18 08:00:28;;;;;;;1.35;1.20;;;20.00;60.20;;;;;;4966610;29;20330;-67
2022/10/18 08:02:58;;;;;;;1.80;1.45;;;20.00;60.10;;;;;;4966526;29;20046;-67
2022/10/18 08:05:25;;;;;;;1.58;1.45;;;20.00;60.10;;;;;;4965334;29;20218;-67
2022/10/18 08:07:52;;;;;;;1.60;1.50;;;20.00;60.10;;;;;;4966453;29;20023;-68
2022/10/18 08:10:19;;;;;;;1.20;1.10;;;20.00;60.20;;;;;;4966325;28;20083;-67
2022/10/18 08:12:45;;;;;;;1.50;1.40;;;20.00;60.20;;;;;;4966406;28;20023;-68
2022/10/18 08:15:10;;;;;;;1.38;1.23;;;20.00;60.20;;;;;;4966338;29;20013;-68
2022/10/18 08:17:36;;;;;;;1.58;1.23;;;20.00;60.20;;;;;;4966267;29;20023;-67
2022/10/18 08:20:03;;;;;;;1.35;1.10;;;20.00;60.30;;;;;;4966169;29;20019;-67
2022/10/18 08:22:28;;;;;;;1.50;1.40;;;20.00;60.20;;;;;;4966204;29;20030;-67
2022/10/18 08:24:54;;;;;;;1.63;1.35;;;20.00;60.30;;;;;;4966161;29;20019;-68
2022/10/18 08:27:20;;;;;;;1.58;1.48;;;20.00;60.30;;;;;;4966132;29;20314;-66
2022/10/18 08:29:46;;;;;;;1.45;1.35;;;20.00;60.30;;;;;;4966061;29;20134;-67
2022/10/18 08:32:12;;;;;;;1.58;1.40;;;20.00;60.30;;;;;;4966017;29;20311;-67
2022/10/18 08:34:38;;;;;;;1.55;1.45;;;20.00;60.40;;;;;;4965964;29;20325;-68
2022/10/18 08:37:04;;;;;;;1.38;1.27;;;20.00;60.40;;;;;;4965766;29;20047;-67
2022/10/18 08:39:30;;;;;;;1.40;1.30;;;20.00;60.40;;;;;;4965831;29;20035;-68
2022/10/18 08:42:16;;;;;;;1.52;1.42;;;20.00;60.40;;;;;;4965869;29;20027;-68
2022/10/18 08:44:48;;;;;;;1.30;1.20;;;20.00;60.50;;;;;;4965882;29;20206;-68
2022/10/18 08:47:18;;;;;;;1.52;1.42;;;20.00;60.50;;;;;;4965833;29;20211;-68
2022/10/18 08:49:55;;;;;;;1.48;1.38;;;20.00;60.50;;;;;;4980749;28;20030;-67
2022/10/18 08:52:51;;;;;;;1.95;1.63;;;20.00;60.50;;;;;;4965719;29;20382;-67
2022/10/18 08:55:28;;;;;;;1.45;1.35;;;20.00;60.50;;;;;;4965679;29;20034;-68
2022/10/18 08:57:56;;;;;;;1.73;1.40;;;20.00;60.50;;;;;;4965550;29;20027;-67
2022/10/18 09:00:23;;;;;;;;;;;20.00;60.60;;;;;;4966033;28;20299;-68
2022/10/18 09:03:23;;;;;;;1.20;1.10;;;20.00;60.60;;;;;;4965570;28;19902;-69
2022/10/18 09:05:58;;;;;;;1.35;1.25;;;20.00;60.60;;;;;;4965524;28;20232;-69
2022/10/18 09:08:55;;;;;;;1.85;1.50;;;20.00;60.60;;;;;;4980515;28;20019;-69
2022/10/18 09:11:33;;;;;;;1.48;1.38;;;20.00;60.60;;;;;;4965403;29;20023;-68
2022/10/18 09:14:18;;;;;;;1.30;1.20;;;20.00;60.60;;;;;;4965449;29;20023;-67
2022/10/18 09:17:24;;;;;;;1.30;1.20;;;20.00;60.60;;;;;;4965382;29;20023;-68
2022/10/18 09:20:18;;;;;;;1.48;1.38;;;20.00;60.60;;;;;;4965286;29;20023;-67
2022/10/18 09:23:04;;;;;;;1.25;1.15;;;20.00;60.60;;;;;;4966741;28;20042;-67
2022/10/18 09:25:41;;;;;;;1.40;1.30;;;20.00;60.60;;;;;;4965302;29;20019;-68
2022/10/18 09:28:12;;;;;;;1.60;1.50;;;20.00;60.60;;;;;;4965243;29;20215;-67
2022/10/18 09:31:02;;;;;;;1.70;1.60;;;20.00;61.30;;;;;;4965215;29;20019;-68
2022/10/18 09:33:33;;;;;;;1.50;1.25;;;20.00;60.60;;;;;;4965263;29;20030;-67
2022/10/18 09:36:09;;;;;;;1.25;1.15;;;20.10;60.70;;;;;;4963895;29;20042;-67
2022/10/18 09:38:50;;;;;;;1.50;1.40;;;20.10;60.60;;;;;;4965096;29;20028;-67
2022/10/18 09:41:23;;;;;;;1.60;1.50;;;20.10;60.60;;;;;;4965183;29;20042;-67
2022/10/18 09:44:01;;;;;;;1.80;1.50;;;20.10;60.70;;;;;;4965157;29;20098;-68
2022/10/18 09:46:31;;;;;;;;;;;20.10;60.60;;;;;;4965553;29;20334;-69
2022/10/18 09:49:05;;;;;;;1.80;1.58;;;20.10;60.60;;;;;;4965087;28;19913;-68
2022/10/18 09:51:37;;;;;;;1.33;1.23;;;20.10;60.70;;;;;;4965122;28;20026;-69
2022/10/18 09:54:48;;;;;;;1.35;1.25;;;20.10;60.70;;;;;;4965044;29;20045;-69
2022/10/18 09:57:34;;;;;;;1.63;1.48;;;20.10;60.60;;;;;;4965065;28;20254;-67
2022/10/18 10:00:02;;;;;;;1.55;1.45;;;20.10;60.60;;;;;;4964961;29;20046;-68
2022/10/18 10:02:27;;;;;;;1.50;1.40;;;20.10;60.70;;;;;;4965009;29;20019;-68
2022/10/18 10:04:54;;;;;;;1.35;1.25;;;20.10;60.90;;;;;;4964974;28;20533;-68
2022/10/18 10:07:32;;;;;;;1.40;1.30;;;20.10;60.70;;;;;;4964922;29;20012;-67
2022/10/18 10:10:28;;;;;;;0.95;0.95;;;20.10;60.60;;;;;;4964957;28;20019;-68
2022/10/18 10:13:23;;;;;;;1.95;1.75;;;20.20;60.70;;;;;;4966323;28;20027;-68
2022/10/18 10:16:02;;;;;;;1.48;1.38;;;20.20;60.70;;;;;;4964880;29;20333;-68
2022/10/18 10:18:33;;;;;;;1.70;1.42;;;20.20;60.70;;;;;;4979708;28;20219;-67
2022/10/18 10:21:04;;;;;;;1.73;1.58;;;20.20;60.70;;;;;;4964769;29;20223;-67
2022/10/18 10:23:37;;;;;;;1.30;1.20;;;20.20;60.70;;;;;;4964791;28;20273;-68
2022/10/18 10:26:23;;;;;;;1.65;1.48;;;20.20;60.70;;;;;;4964806;29;20062;-68
2022/10/18 10:28:49;;;;;;;1.35;1.25;;;20.20;60.60;;;;;;4964739;29;20023;-68
2022/10/18 10:31:23;;;;;;;1.58;1.48;;;20.20;60.60;;;;;;4964739;29;20087;-68
2022/10/18 10:34:12;;;;;;;1.40;1.30;;;20.20;60.60;;;;;;4966471;28;20046;-68
2022/10/18 10:36:46;;;;;;;1.38;1.27;;;20.20;60.60;;;;;;4968028;29;20058;-68
2022/10/18 10:39:17;;;;;;;1.60;1.50;;;20.20;61.20;;;;;;4968079;29;20023;-69
2022/10/18 10:41:56;;;;;;;1.27;1.00;;;20.20;60.60;;;;;;4968075;29;20195;-69
2022/10/18 10:44:22;;;;;;;;;;;20.20;60.60;;;;;;4968479;29;20019;-67
2022/10/18 10:46:50;;;;;;;1.55;1.45;;;20.30;60.60;;;;;;4967984;28;19903;-67
2022/10/18 10:49:24;;;;;;;1.30;1.17;;;20.20;60.70;;;;;;4967915;29;20015;-69
2022/10/18 10:51:59;;;;;;;1.50;1.20;;;20.20;60.60;;;;;;4967911;29;20218;-68
2022/10/18 10:54:27;;;;;;;1.65;1.52;;;20.30;60.60;;;;;;4967894;28;20028;-68
2022/10/18 10:57:10;;;;;;;0.88;0.88;;;20.20;60.60;;;;;;4967771;29;20019;-68
2022/10/18 10:59:48;;;;;;;1.45;1.33;;;20.30;60.60;;;;;;4967721;28;20250;-67
2022/10/18 11:02:16;;;;;;;1.42;1.33;;;20.30;60.60;;;;;;4967750;28;20023;-69
2022/10/18 11:04:43;;;;;;;;;;;20.30;60.60;;;;;;4968056;28;20019;-67
2022/10/18 11:07:08;;;;;;;1.77;1.50;;;20.30;60.60;;;;;;4967651;28;20190;-67
2022/10/18 11:09:43;;;;;;;1.50;1.40;;;20.30;60.70;;;;;;4967581;29;20046;-68
2022/10/18 11:12:26;;;;;;;1.90;1.48;;;20.30;60.60;;;;;;4966389;28;20092;-68
2022/10/18 11:15:08;;;;;;;1.30;1.20;;;20.30;60.60;;;;;;4967494;28;20023;-68
2022/10/18 11:18:08;;;;;;;1.75;1.17;;;20.40;60.60;;;;;;4967464;28;20070;-68
2022/10/18 11:20:37;;;;;;;1.25;1.15;;;20.40;60.60;;;;;;4967350;29;20027;-68
2022/10/18 11:23:15;;;;;;;1.48;1.38;;;20.40;60.70;;;;;;4967333;29;20030;-68
2022/10/18 11:26:08;;;;;;;1.40;1.30;;;20.40;60.60;;;;;;4967307;29;20026;-68
2022/10/18 11:29:11;;;;;;;1.50;1.40;;;20.40;60.60;;;;;;4967246;29;20015;-68
2022/10/18 11:31:43;;;;;;;1.25;1.15;;;20.40;60.60;;;;;;4967163;29;20019;-68
2022/10/18 11:34:39;;;;;;;1.50;1.40;;;20.40;60.60;;;;;;4967163;29;20026;-68
2022/10/18 11:37:23;;;;;;;1.33;1.20;;;20.40;60.50;;;;;;4965793;28;20043;-68
2022/10/18 11:40:26;;;;;;;1.30;1.20;;;20.40;60.50;;;;;;4966946;29;20046;-68
2022/10/18 11:43:11;;;;;;;1.40;1.30;;;20.40;60.50;;;;;;4966899;29;20015;-67
2022/10/18 11:46:04;;;;;;;1.42;1.10;;;20.40;60.70;;;;;;4966539;28;20019;-68
2022/10/18 11:48:47;;;;;;;1.58;1.48;;;20.40;60.70;;;;;;4966921;28;20304;-69
2022/10/18 11:51:13;;;;;;;1.23;1.13;;;20.40;60.70;;;;;;4966848;29;20023;-66
2022/10/18 11:53:52;;;;;;;1.60;1.40;;;20.40;60.60;;;;;;4966735;29;20026;-68
2022/10/18 11:56:34;;;;;;;1.50;1.40;;;20.50;60.60;;;;;;4966740;29;20019;-67
2022/10/18 11:59:26;;;;;;;1.10;1.00;;;20.50;60.60;;;;;;4966651;29;20019;-68
2022/10/18 12:02:20;;;;;;;1.30;1.20;;;20.50;60.60;;;;;;4966642;29;20019;-67
2022/10/18 12:04:57;;;;;;;2.30;1.40;;;20.50;60.60;;;;;;4966563;29;20042;-68
2022/10/18 12:07:24;;;;;;;1.30;1.20;;;20.50;60.50;;;;;;4966583;29;20015;-68
2022/10/18 12:09:52;;;;;;;1.52;1.40;;;20.50;60.50;;;;;;4966463;28;20037;-67
2022/10/18 12:12:26;;;;;;;2.42;1.60;;;20.50;60.50;;;;;;4966428;28;20030;-67
2022/10/18 12:15:04;;;;;;;1.20;1.10;;;20.60;60.50;;;;;;4966385;29;20319;-68
2022/10/18 12:17:29;;;;;;;1.15;1.05;;;20.60;60.50;;;;;;4966257;29;20031;-68
2022/10/18 12:19:59;;;;;;;1.65;1.55;;;20.60;60.50;;;;;;4966204;29;20066;-67
2022/10/18 12:22:37;;;;;;;1.30;1.20;;;20.60;60.50;;;;;;4966165;29;20023;-68
2022/10/18 12:25:04;;;;;;;1.17;1.08;;;20.60;60.40;;;;;;4966206;29;20188;-68
2022/10/18 12:28:07;;;;;;;1.55;1.45;;;20.60;60.40;;;;;;4966047;29;20087;-68
2022/10/18 12:30:35;;;;;;;1.45;1.35;;;20.60;60.30;;;;;;4966145;29;20030;-68
2022/10/18 12:33:08;;;;;;;;;;;20.70;60.40;;;;;;4966485;29;20026;-67
2022/10/18 12:36:04;;;;;;;1.30;1.20;;;20.60;60.30;;;;;;4965888;28;20118;-68
2022/10/18 12:38:35;;;;;;;1.52;1.42;;;20.70;60.40;;;;;;4965903;29;20326;-67
2022/10/18 12:41:02;;;;;;;1.10;1.00;;;20.70;60.20;;;;;;4965944;28;20311;-68
2022/10/18 12:43:35;;;;;;;1.60;1.50;;;20.80;60.10;;;;;;4965873;29;20082;-68
2022/10/18 12:46:06;;;;;;;1.30;1.20;;;20.90;59.90;;;;;;4965867;29;20023;-68
2022/10/18 12:48:49;;;;;;;1.25;1.17;;;20.90;59.70;;;;;;4965822;29;20074;-68
2022/10/18 12:51:18;;;;;;;1.65;1.40;;;21.10;59.40;;;;;;4965831;29;20019;-67
2022/10/18 12:53:47;;;;;;;1.67;1.40;;;21.20;59.20;;;;;;4965688;29;20134;-67
2022/10/18 12:56:28;;;;;;;1.35;1.25;;;21.30;59.00;;;;;;4963901;28;20031;-68
2022/10/18 12:59:14;;;;;;;1.73;1.30;;;21.40;58.70;;;;;;4965573;28;20200;-68
2022/10/18 13:01:52;;;;;;;1.20;1.10;;;21.50;58.40;;;;;;4968265;28;20035;-68
2022/10/18 13:04:26;;;;;;;1.40;1.30;;;21.50;58.10;;;;;;4965586;29;20019;-68
2022/10/18 13:07:04;;;;;;;1.40;1.30;;;21.70;57.90;;;;;;4965522;29;20188;-66
2022/10/18 13:09:36;;;;;;;1.08;1.02;;;21.80;57.60;;;;;;4964433;28;20051;-69
2022/10/18 13:12:13;;;;;;;1.50;1.40;;;21.90;57.40;;;;;;4965486;29;20086;-67